createdAt,value
2019-02-05T00:01:15.546Z,13.33
2019-02-05T00:06:16.912Z,11.90
2019-02-05T00:11:18.244Z,11.93
2019-02-05T00:16:20.317Z,12.80
2019-02-05T00:21:22.530Z,17.30
2019-02-05T00:26:23.876Z,9.73
2019-02-05T00:31:25.229Z,11.23
2019-02-05T00:36:26.609Z,14.47
2019-02-05T00:41:28.060Z,11.87
2019-02-05T00:46:30.160Z,11.70
2019-02-05T00:51:32.289Z,13.37
2019-02-05T00:56:33.681Z,11.93
2019-02-05T01:01:35.820Z,13.43
2019-02-05T01:06:37.286Z,14.23
2019-02-05T01:11:38.627Z,15.47
2019-02-05T01:16:40.036Z,14.03
2019-02-05T01:21:41.500Z,13.60
2019-02-05T01:26:42.905Z,14.23
2019-02-05T01:31:45.055Z,14.23
2019-02-05T01:36:46.413Z,14.40
2019-02-05T01:41:48.530Z,11.87
2019-02-05T01:46:50.653Z,14.47
2019-02-05T01:51:52.029Z,15.90
2019-02-05T01:56:53.451Z,14.60
2019-02-05T02:01:54.799Z,15.00
2019-02-05T02:06:56.956Z,15.77
2019-02-05T02:11:58.296Z,13.87
2019-02-05T02:16:59.644Z,13.67
2019-02-05T02:22:01.107Z,10.83
2019-02-05T02:27:02.605Z,15.63
2019-02-05T02:32:03.999Z,15.27
2019-02-05T02:37:06.084Z,14.83
2019-02-05T02:42:07.488Z,12.43
2019-02-05T02:47:08.843Z,14.50
2019-02-05T02:52:10.178Z,12.70
2019-02-05T02:57:12.356Z,13.80
2019-02-05T03:02:14.525Z,12.47
2019-02-05T03:07:15.871Z,12.83
2019-02-05T03:12:17.271Z,14.47
2019-02-05T03:17:18.677Z,13.63
2019-02-05T03:22:20.071Z,15.23
2019-02-05T03:27:21.426Z,14.53
2019-02-05T03:32:22.764Z,16.40
2019-02-05T03:37:24.154Z,13.83
2019-02-05T03:42:25.562Z,15.07
2019-02-05T03:47:27.052Z,15.30
2019-02-05T03:52:28.460Z,14.13
2019-02-05T03:57:47.399Z,13.70
2019-02-05T04:08:48.731Z,17.20
2019-02-05T04:13:52.884Z,14.10
2019-02-05T04:18:55.939Z,14.60
2019-02-05T04:24:00.868Z,17.30
2019-02-05T04:34:41.396Z,19.50
2019-02-05T04:39:51.392Z,17.70
2019-02-05T04:50:42.153Z,17.42
2019-02-05T05:01:22.625Z,18.27
2019-02-05T05:12:00.311Z,17.23
2019-02-05T05:17:01.770Z,15.40
2019-02-05T05:22:03.146Z,15.77
2019-02-05T05:27:04.690Z,16.23
2019-02-05T05:32:06.072Z,16.77
2019-02-05T05:37:07.229Z,19.33
2019-02-05T05:42:08.690Z,19.33
2019-02-05T05:47:10.253Z,16.27
2019-02-05T05:52:11.637Z,21.43
2019-02-05T05:57:13.067Z,18.53
2019-02-05T06:02:14.459Z,16.93
2019-02-05T06:07:15.841Z,18.83
2019-02-05T06:12:17.208Z,18.20
2019-02-05T06:17:18.608Z,15.07
2019-02-05T06:22:20.170Z,19.53
2019-02-05T06:27:21.595Z,14.93
2019-02-05T06:32:23.097Z,17.23
2019-02-05T06:37:26.030Z,17.10
2019-02-05T06:42:27.493Z,19.63
2019-02-05T06:47:28.833Z,23.33
2019-02-05T06:52:30.885Z,22.20
2019-02-05T06:57:32.378Z,24.50
2019-02-05T07:02:34.955Z,19.03
2019-02-05T07:07:37.468Z,19.90
2019-02-05T07:12:39.708Z,18.63
2019-02-05T07:17:49.273Z,17.10
2019-02-05T07:22:43.289Z,15.87
2019-02-05T07:27:44.849Z,18.40
2019-02-05T07:32:46.280Z,14.93
2019-02-05T07:37:47.724Z,18.20
2019-02-05T07:42:49.132Z,13.60
2019-02-05T07:47:50.739Z,15.00
2019-02-05T07:52:52.192Z,21.77
2019-02-05T07:57:54.252Z,16.77
2019-02-05T08:02:55.615Z,17.83
2019-02-05T08:07:57.001Z,17.90
2019-02-05T08:12:59.084Z,17.43
2019-02-05T08:18:01.178Z,20.07
2019-02-05T08:23:02.663Z,16.13
2019-02-05T08:28:04.110Z,15.23
2019-02-05T08:33:05.458Z,16.53
2019-02-05T08:38:06.842Z,22.83
2019-02-05T08:43:08.237Z,20.40
2019-02-05T08:48:09.591Z,22.27
2019-02-05T08:53:11.009Z,17.70
2019-02-05T08:58:12.393Z,19.00
2019-02-05T09:03:13.748Z,19.67
2019-02-05T09:08:15.113Z,17.67
2019-02-05T09:13:17.259Z,17.07
2019-02-05T09:18:18.612Z,18.57
2019-02-05T09:23:20.008Z,17.07
2019-02-05T09:28:21.352Z,18.10
2019-02-05T09:33:22.716Z,23.67
2019-02-05T09:38:24.053Z,21.67
2019-02-05T09:43:25.385Z,21.30
2019-02-05T09:48:27.481Z,19.70
2019-02-05T09:53:28.881Z,23.03
2019-02-05T09:58:30.344Z,20.57
2019-02-05T10:03:31.709Z,21.03
2019-02-05T10:08:33.057Z,21.57
2019-02-05T10:13:34.446Z,28.50
2019-02-05T10:18:35.867Z,23.07
2019-02-05T10:23:37.316Z,22.63
2019-02-05T10:28:38.732Z,22.53
2019-02-05T10:33:40.125Z,23.50
2019-02-05T10:38:41.521Z,20.73
2019-02-05T10:43:42.934Z,23.97
2019-02-05T10:48:44.271Z,22.87
2019-02-05T10:53:45.763Z,22.57
2019-02-05T10:58:47.220Z,20.87
2019-02-05T11:03:48.594Z,20.10
2019-02-05T11:08:50.027Z,22.93
2019-02-05T11:13:51.427Z,20.73
2019-02-05T11:18:52.783Z,23.60
2019-02-05T11:23:54.218Z,22.47
2019-02-05T11:28:55.536Z,25.67
2019-02-05T11:33:56.840Z,21.03
2019-02-05T11:38:58.210Z,24.47
2019-02-05T11:43:59.603Z,26.30
2019-02-05T11:49:01.117Z,20.17
2019-02-05T11:54:03.334Z,23.13
2019-02-05T11:59:04.744Z,22.80
2019-02-05T12:04:06.100Z,18.80
2019-02-05T12:09:07.554Z,24.30
2019-02-05T12:14:08.961Z,22.70
2019-02-05T12:19:10.387Z,24.27
2019-02-05T12:24:11.771Z,23.30
2019-02-05T12:29:13.196Z,22.47
2019-02-05T12:34:14.592Z,22.43
2019-02-05T12:39:15.968Z,24.67
2019-02-05T12:44:17.321Z,25.90
2019-02-05T12:49:18.709Z,28.10
2019-02-05T12:54:20.031Z,27.67
2019-02-05T12:59:21.377Z,31.10
2019-02-05T13:04:22.750Z,29.83
2019-02-05T13:09:24.189Z,29.07
2019-02-05T13:14:26.259Z,29.67
2019-02-05T13:19:27.620Z,33.50
2019-02-05T13:24:28.963Z,32.83
2019-02-05T13:29:30.340Z,30.93
2019-02-05T13:34:31.692Z,35.40
2019-02-05T13:39:33.037Z,35.70
2019-02-05T13:44:34.367Z,32.07
2019-02-05T13:49:35.717Z,31.70
2019-02-05T13:54:37.129Z,31.70
2019-02-05T13:59:38.624Z,34.23
2019-02-05T14:04:39.997Z,33.20
2019-02-05T14:09:41.322Z,30.13
2019-02-05T14:14:42.658Z,34.23
2019-02-05T14:19:44.009Z,36.83
2019-02-05T14:24:45.347Z,30.63
2019-02-05T14:29:46.766Z,34.40
2019-02-05T14:34:48.118Z,34.10
2019-02-05T14:39:49.447Z,31.43
2019-02-05T14:44:50.870Z,32.90
2019-02-05T14:49:52.268Z,37.03
2019-02-05T14:54:53.673Z,36.83
2019-02-05T14:59:55.107Z,34.97
2019-02-05T15:04:56.507Z,35.73
2019-02-05T15:09:57.844Z,34.87
2019-02-05T15:14:59.164Z,31.70
2019-02-05T15:20:01.256Z,37.40
2019-02-05T15:25:02.631Z,34.80
2019-02-05T15:30:12.741Z,37.77
2019-02-05T15:35:14.121Z,36.30
2019-02-05T15:40:15.443Z,28.30
2019-02-05T15:45:16.789Z,34.80
2019-02-05T15:50:18.124Z,33.63
2019-02-05T15:55:21.073Z,35.77
2019-02-05T16:00:20.839Z,42.13
2019-02-05T16:05:22.197Z,40.23
2019-02-05T16:10:23.557Z,43.90
2019-02-05T16:15:24.970Z,42.27
2019-02-05T16:20:26.337Z,43.60
2019-02-05T16:25:27.784Z,34.90
2019-02-05T16:30:29.222Z,46.37
2019-02-05T16:35:30.549Z,41.70
2019-02-05T16:40:34.640Z,48.67
2019-02-05T16:45:35.974Z,42.73
2019-02-05T16:50:43.126Z,41.83
2019-02-05T16:55:45.261Z,47.77
2019-02-05T17:00:46.595Z,37.93
2019-02-05T17:05:47.941Z,42.33
2019-02-05T17:10:49.342Z,48.97
2019-02-05T17:15:55.734Z,58.97
2019-02-05T17:20:58.204Z,37.20
2019-02-05T17:25:59.624Z,38.90
2019-02-05T17:31:01.094Z,59.37
2019-02-05T17:36:03.051Z,41.60
2019-02-05T17:41:05.561Z,42.87
2019-02-05T17:46:06.883Z,44.23
2019-02-05T17:51:09.305Z,48.20
2019-02-05T17:56:10.756Z,46.00
2019-02-05T18:01:17.355Z,82.43
2019-02-05T18:06:18.703Z,104.80
2019-02-05T18:11:20.156Z,88.87
2019-02-05T18:16:21.477Z,51.30
2019-02-05T18:21:22.879Z,47.47
2019-02-05T18:26:25.831Z,44.30
2019-02-05T18:31:27.343Z,46.53
2019-02-05T18:36:32.032Z,44.90
2019-02-05T18:41:36.801Z,103.33
2019-02-05T18:46:42.343Z,42.17
2019-02-05T18:51:43.753Z,43.70
2019-02-05T18:56:45.207Z,41.73
2019-02-05T19:01:47.411Z,58.27
2019-02-05T19:06:48.857Z,47.97
2019-02-05T19:12:04.146Z,46.00
2019-02-05T19:17:04.276Z,53.13
2019-02-05T19:22:10.294Z,53.70
2019-02-05T19:27:11.728Z,39.47
2019-02-05T19:32:13.820Z,37.50
2019-02-05T19:37:16.049Z,44.67
2019-02-05T19:42:17.506Z,43.57
2019-02-05T19:47:19.097Z,50.20
2019-02-05T19:52:20.393Z,39.33
2019-02-05T19:57:21.797Z,45.30
2019-02-05T20:02:23.284Z,46.93
2019-02-05T20:07:26.125Z,62.57
2019-02-05T20:12:29.259Z,50.13
2019-02-05T20:17:30.789Z,40.30
2019-02-05T20:22:32.288Z,50.27
2019-02-05T20:27:33.760Z,55.93
2019-02-05T20:32:35.252Z,49.23
2019-02-05T20:37:37.296Z,40.70
2019-02-05T20:42:38.761Z,55.23
2019-02-05T20:47:41.535Z,52.13
2019-02-05T20:52:52.523Z,45.90
2019-02-05T20:57:54.696Z,60.00
2019-02-05T21:02:58.069Z,49.17
2019-02-05T21:07:59.521Z,48.47
2019-02-05T21:13:01.957Z,61.40
2019-02-05T21:18:03.459Z,118.30
2019-02-05T21:23:19.584Z,108.23
2019-02-05T21:28:20.955Z,131.93
2019-02-05T21:33:22.449Z,58.67
2019-02-05T21:38:23.934Z,150.77
2019-02-05T21:43:25.990Z,89.70
2019-02-05T21:48:28.426Z,132.60
2019-02-05T21:53:36.194Z,64.23
2019-02-05T21:58:40.296Z,86.47
2019-02-05T22:03:51.489Z,57.87
2019-02-05T22:08:52.905Z,75.83
2019-02-05T22:14:02.682Z,59.27
2019-02-05T22:19:08.330Z,51.33
2019-02-05T22:24:11.954Z,53.60
2019-02-05T22:29:16.361Z,37.63
2019-02-05T22:34:17.822Z,37.67
2019-02-05T22:39:21.441Z,32.33
2019-02-05T22:44:27.976Z,27.33
2019-02-05T22:49:32.692Z,27.83
2019-02-05T22:54:36.519Z,35.47
2019-02-05T22:59:40.225Z,22.70
2019-02-05T23:04:50.358Z,29.40
2019-02-05T23:09:51.730Z,28.27
2019-02-05T23:15:13.028Z,29.53
2019-02-05T23:20:15.105Z,27.83
2019-02-05T23:25:17.210Z,26.23
2019-02-05T23:30:18.548Z,26.63
2019-02-05T23:35:20.710Z,24.23
2019-02-05T23:40:22.057Z,25.33
2019-02-05T23:45:23.434Z,29.27
2019-02-05T23:50:24.796Z,28.80
2019-02-05T23:55:26.129Z,23.63
